createdAt,value
2017-06-04T00:00:16.336Z,21.09
2017-06-04T00:01:16.644Z,21.1
2017-06-04T00:02:16.312Z,21.06
2017-06-04T00:03:16.612Z,21.04
2017-06-04T00:04:16.594Z,21.04
2017-06-04T00:05:16.612Z,21.09
2017-06-04T00:06:16.567Z,21.04
2017-06-04T00:07:16.549Z,21.07
2017-06-04T00:08:16.530Z,21
2017-06-04T00:09:16.522Z,21.02
2017-06-04T00:10:16.508Z,20.88
2017-06-04T00:11:16.501Z,20.94
2017-06-04T00:12:16.521Z,20.91
2017-06-04T00:13:16.154Z,20.79
2017-06-04T00:14:16.461Z,20.81
2017-06-04T00:15:16.239Z,20.72
2017-06-04T00:16:16.430Z,20.88
2017-06-04T00:17:16.407Z,20.73
2017-06-04T00:18:16.101Z,20.7
2017-06-04T00:19:16.394Z,20.74
2017-06-04T00:20:16.081Z,20.7
2017-06-04T00:21:16.093Z,20.54
2017-06-04T00:22:16.048Z,20.51
2017-06-04T00:23:16.340Z,20.58
2017-06-04T00:24:16.018Z,20.57
2017-06-04T00:25:15.770Z,20.57
2017-06-04T00:26:16.121Z,20.62
2017-06-04T00:27:15.986Z,20.58
2017-06-04T00:28:15.960Z,20.52
2017-06-04T00:29:16.260Z,20.51
2017-06-04T00:30:16.243Z,20.51
2017-06-04T00:31:15.931Z,20.38
2017-06-04T00:32:16.210Z,20.35
2017-06-04T00:33:16.199Z,20.33
2017-06-04T00:34:16.180Z,20.41
2017-06-04T00:35:15.568Z,20.33
2017-06-04T00:36:16.179Z,20.43
2017-06-04T00:37:16.152Z,20.4
2017-06-04T00:38:15.521Z,20.36
2017-06-04T00:39:16.120Z,20.36
2017-06-04T00:40:15.790Z,20.44
2017-06-04T00:41:15.482Z,20.38
2017-06-04T00:42:16.224Z,20.44
2017-06-04T00:43:15.751Z,20.44
2017-06-04T00:44:15.738Z,20.38
2017-06-04T00:45:16.039Z,20.44
2017-06-04T00:46:15.719Z,20.4
2017-06-04T00:47:16.027Z,20.41
2017-06-04T00:48:15.681Z,20.36
2017-06-04T00:49:15.365Z,20.31
2017-06-04T00:50:15.370Z,20.32
2017-06-04T00:51:15.949Z,20.36
2017-06-04T00:52:15.711Z,20.33
2017-06-04T00:53:15.620Z,20.4
2017-06-04T00:54:15.722Z,20.41
2017-06-04T00:55:15.592Z,20.4
2017-06-04T00:56:15.651Z,20.36
2017-06-04T00:57:15.869Z,20.35
2017-06-04T00:58:15.563Z,20.35
2017-06-04T00:59:15.848Z,20.33
2017-06-04T01:00:15.839Z,20.44
2017-06-04T01:01:15.220Z,20.36
2017-06-04T01:02:15.801Z,20.35
2017-06-04T01:03:15.799Z,20.36
2017-06-04T01:04:15.788Z,20.38
2017-06-04T01:05:15.831Z,20.23
2017-06-04T01:06:15.739Z,20.07
2017-06-04T01:07:15.779Z,20.06
2017-06-04T01:08:15.720Z,20.08
2017-06-04T01:09:15.711Z,20.08
2017-06-04T01:10:15.699Z,20.06
2017-06-04T01:11:15.371Z,20.11
2017-06-04T01:12:15.669Z,20.11
2017-06-04T01:13:15.029Z,20.11
2017-06-04T01:14:15.639Z,20.08
2017-06-04T01:15:15.652Z,20.13
2017-06-04T01:16:15.303Z,20.11
2017-06-04T01:17:15.274Z,20.16
2017-06-04T01:18:14.961Z,20.14
2017-06-04T01:19:15.682Z,20.1
2017-06-04T01:20:15.238Z,19.99
2017-06-04T01:21:15.540Z,19.96
2017-06-04T01:22:15.523Z,20.01
2017-06-04T01:23:15.510Z,19.96
2017-06-04T01:24:15.191Z,19.99
2017-06-04T01:25:14.893Z,19.98
2017-06-04T01:26:15.162Z,19.91
2017-06-04T01:27:15.149Z,19.96
2017-06-04T01:28:15.149Z,19.93
2017-06-04T01:29:15.119Z,19.92
2017-06-04T01:30:15.110Z,19.88
2017-06-04T01:31:15.101Z,19.93
2017-06-04T01:32:15.382Z,19.95
2017-06-04T01:33:15.368Z,19.96
2017-06-04T01:34:15.368Z,19.95
2017-06-04T01:35:14.730Z,19.98
2017-06-04T01:36:14.725Z,19.8
2017-06-04T01:37:15.021Z,19.91
2017-06-04T01:38:14.990Z,19.78
2017-06-04T01:39:14.990Z,19.83
2017-06-04T01:40:14.959Z,19.85
2017-06-04T01:41:14.943Z,19.78
2017-06-04T01:42:15.257Z,19.85
2017-06-04T01:43:15.231Z,19.76
2017-06-04T01:44:15.200Z,19.8
2017-06-04T01:45:14.898Z,19.58
2017-06-04T01:46:14.578Z,19.63
2017-06-04T01:47:14.552Z,19.53
2017-06-04T01:48:15.150Z,19.52
2017-06-04T01:49:14.831Z,19.52
2017-06-04T01:50:15.130Z,19.49
2017-06-04T01:51:15.140Z,19.53
2017-06-04T01:52:15.108Z,19.51
2017-06-04T01:53:14.770Z,19.58
2017-06-04T01:54:14.770Z,19.59
2017-06-04T01:55:14.749Z,19.69
2017-06-04T01:56:15.040Z,19.62
2017-06-04T01:57:15.032Z,19.69
2017-06-04T01:58:15.009Z,19.7
2017-06-04T01:59:14.402Z,19.66
2017-06-04T02:00:14.779Z,19.71
2017-06-04T02:01:14.969Z,19.69
2017-06-04T02:02:14.691Z,19.66
2017-06-04T02:03:14.939Z,19.58
2017-06-04T02:04:14.632Z,19.36
2017-06-04T02:05:14.633Z,19.49
2017-06-04T02:06:14.609Z,19.38
2017-06-04T02:07:14.901Z,19.43
2017-06-04T02:08:14.306Z,19.46
2017-06-04T02:09:14.540Z,19.44
2017-06-04T02:10:14.882Z,19.46
2017-06-04T02:11:14.598Z,19.44
2017-06-04T02:12:14.519Z,19.44
2017-06-04T02:13:14.500Z,19.33
2017-06-04T02:14:14.635Z,19.33
2017-06-04T02:15:14.769Z,19.36
2017-06-04T02:16:14.590Z,19.46
2017-06-04T02:17:14.132Z,19.46
2017-06-04T02:18:14.532Z,19.26
2017-06-04T02:19:14.710Z,19.3
2017-06-04T02:20:14.485Z,19.31
2017-06-04T02:21:14.446Z,19.4
2017-06-04T02:22:14.690Z,19.34
2017-06-04T02:23:14.807Z,19.26
2017-06-04T02:24:14.646Z,19.3
2017-06-04T02:25:14.642Z,19.37
2017-06-04T02:26:14.408Z,19.34
2017-06-04T02:27:14.638Z,19.31
2017-06-04T02:28:14.289Z,19.31
2017-06-04T02:29:14.577Z,19.31
2017-06-04T02:30:14.578Z,19.31
2017-06-04T02:31:14.540Z,19.38
2017-06-04T02:32:14.539Z,19.28
2017-06-04T02:33:14.507Z,19.26
2017-06-04T02:34:14.562Z,19.28
2017-06-04T02:35:14.546Z,19.31
2017-06-04T02:36:14.258Z,19.28
2017-06-04T02:37:14.520Z,19.31
2017-06-04T02:38:14.536Z,19.34
2017-06-04T02:39:13.807Z,19.23
2017-06-04T02:40:14.412Z,19.19
2017-06-04T02:41:14.492Z,19.21
2017-06-04T02:42:14.412Z,19.12
2017-06-04T02:43:14.053Z,19.16
2017-06-04T02:44:14.374Z,19.23
2017-06-04T02:45:14.052Z,19.15
2017-06-04T02:46:14.022Z,19.19
2017-06-04T02:47:14.000Z,19.19
2017-06-04T02:48:13.982Z,19.16
2017-06-04T02:49:13.664Z,19.04
2017-06-04T02:50:14.319Z,19.02
2017-06-04T02:51:13.950Z,18.96
2017-06-04T02:52:13.609Z,18.9
2017-06-04T02:53:13.911Z,18.93
2017-06-04T02:54:14.214Z,18.96
2017-06-04T02:55:13.878Z,18.97
2017-06-04T02:56:14.180Z,18.99
2017-06-04T02:57:14.161Z,19.07
2017-06-04T02:58:14.144Z,18.96
2017-06-04T02:59:13.526Z,18.93
2017-06-04T03:00:14.108Z,18.84
2017-06-04T03:01:14.108Z,18.85
2017-06-04T03:02:13.475Z,18.85
2017-06-04T03:03:14.110Z,18.92
2017-06-04T03:04:14.067Z,18.92
2017-06-04T03:05:13.730Z,18.88
2017-06-04T03:06:14.022Z,18.75
2017-06-04T03:07:14.065Z,18.93
2017-06-04T03:08:14.004Z,18.81
2017-06-04T03:09:13.379Z,18.9
2017-06-04T03:10:13.972Z,18.85
2017-06-04T03:11:13.640Z,18.88
2017-06-04T03:12:13.640Z,18.92
2017-06-04T03:13:13.609Z,18.88
2017-06-04T03:14:13.602Z,18.93
2017-06-04T03:15:13.899Z,18.88
2017-06-04T03:16:13.583Z,18.85
2017-06-04T03:17:13.863Z,18.92
2017-06-04T03:18:13.231Z,18.93
2017-06-04T03:19:13.520Z,18.84
2017-06-04T03:20:13.818Z,18.87
2017-06-04T03:21:13.800Z,18.87
2017-06-04T03:22:13.482Z,18.84
2017-06-04T03:23:13.783Z,18.78
2017-06-04T03:24:13.440Z,18.77
2017-06-04T03:25:13.453Z,18.82
2017-06-04T03:26:13.420Z,18.78
2017-06-04T03:27:13.715Z,18.84
2017-06-04T03:28:13.391Z,18.82
2017-06-04T03:29:13.375Z,18.93
2017-06-04T03:30:13.360Z,18.88
2017-06-04T03:31:13.343Z,18.87
2017-06-04T03:32:13.641Z,18.88
2017-06-04T03:33:13.622Z,18.92
2017-06-04T03:34:12.999Z,18.82
2017-06-04T03:35:13.280Z,18.8
2017-06-04T03:36:13.301Z,18.81
2017-06-04T03:37:13.270Z,18.8
2017-06-04T03:38:12.929Z,18.78
2017-06-04T03:39:13.239Z,18.81
2017-06-04T03:40:12.908Z,18.88
2017-06-04T03:41:13.500Z,18.9
2017-06-04T03:42:13.490Z,18.87
2017-06-04T03:43:13.475Z,18.84
2017-06-04T03:44:13.150Z,18.7
2017-06-04T03:45:13.144Z,18.95
2017-06-04T03:46:12.810Z,18.81
2017-06-04T03:47:13.413Z,18.85
2017-06-04T03:48:12.791Z,18.77
2017-06-04T03:49:13.079Z,18.73
2017-06-04T03:50:13.070Z,18.93
2017-06-04T03:51:13.361Z,18.85
2017-06-04T03:52:12.720Z,18.87
2017-06-04T03:53:13.330Z,18.8
2017-06-04T03:54:13.309Z,18.81
2017-06-04T03:55:12.999Z,18.88
2017-06-04T03:56:13.075Z,18.85
2017-06-04T03:57:12.717Z,18.88
2017-06-04T03:58:12.960Z,18.9
2017-06-04T03:59:12.940Z,18.77
2017-06-04T04:00:12.910Z,18.82
2017-06-04T04:01:12.908Z,18.82
2017-06-04T04:02:12.890Z,18.88
2017-06-04T04:03:13.190Z,18.9
2017-06-04T04:04:13.151Z,18.92
2017-06-04T04:05:13.170Z,18.85
2017-06-04T04:06:12.819Z,18.88
2017-06-04T04:07:13.260Z,18.85
2017-06-04T04:08:12.791Z,18.78
2017-06-04T04:09:12.789Z,18.85
2017-06-04T04:10:12.775Z,18.88
2017-06-04T04:11:12.877Z,18.88
2017-06-04T04:12:12.740Z,18.93
2017-06-04T04:13:12.763Z,18.9
2017-06-04T04:14:13.011Z,18.9
2017-06-04T04:15:12.400Z,18.9
2017-06-04T04:16:12.670Z,18.74
2017-06-04T04:17:12.362Z,18.92
2017-06-04T04:18:12.969Z,18.88
2017-06-04T04:19:12.643Z,18.82
2017-06-04T04:20:12.642Z,18.78
2017-06-04T04:21:12.757Z,18.85
2017-06-04T04:22:12.899Z,18.88
2017-06-04T04:23:12.330Z,18.9
2017-06-04T04:24:12.554Z,18.9
2017-06-04T04:25:12.553Z,18.88
2017-06-04T04:26:12.221Z,18.88
2017-06-04T04:27:12.851Z,18.82
2017-06-04T04:28:12.194Z,18.78
2017-06-04T04:29:12.870Z,18.88
2017-06-04T04:30:12.798Z,18.77
2017-06-04T04:31:12.812Z,18.85
2017-06-04T04:32:12.484Z,18.8
2017-06-04T04:33:12.482Z,18.87
2017-06-04T04:34:12.421Z,18.84
2017-06-04T04:35:12.088Z,18.93
2017-06-04T04:36:12.182Z,18.87
2017-06-04T04:37:12.069Z,18.78
2017-06-04T04:38:12.355Z,18.8
2017-06-04T04:39:12.659Z,18.85
2017-06-04T04:40:12.639Z,18.8
2017-06-04T04:41:12.618Z,18.82
2017-06-04T04:42:12.290Z,18.78
2017-06-04T04:43:12.268Z,18.92
2017-06-04T04:44:12.268Z,18.88
2017-06-04T04:45:12.242Z,18.87
2017-06-04T04:46:12.238Z,18.85
2017-06-04T04:47:12.206Z,18.92
2017-06-04T04:48:12.199Z,18.84
2017-06-04T04:49:12.493Z,18.88
2017-06-04T04:50:11.900Z,18.85
2017-06-04T04:51:11.846Z,18.88
2017-06-04T04:52:12.140Z,18.92
2017-06-04T04:53:12.128Z,18.87
2017-06-04T04:54:12.409Z,18.84
2017-06-04T04:55:11.789Z,18.82
2017-06-04T04:56:12.110Z,18.99
2017-06-04T04:57:12.379Z,18.99
2017-06-04T04:58:12.400Z,18.92
2017-06-04T04:59:12.030Z,18.9
2017-06-04T05:00:12.040Z,18.93
2017-06-04T05:01:12.017Z,18.99
2017-06-04T05:02:12.000Z,18.96
2017-06-04T05:03:11.987Z,18.97
2017-06-04T05:04:12.281Z,18.95
2017-06-04T05:05:12.250Z,18.95
2017-06-04T05:06:12.282Z,18.9
2017-06-04T05:07:12.232Z,18.96
2017-06-04T05:08:12.202Z,18.85
2017-06-04T05:09:12.200Z,18.92
2017-06-04T05:10:12.189Z,18.9
2017-06-04T05:11:12.171Z,18.75
2017-06-04T05:12:12.166Z,18.77
2017-06-04T05:13:11.837Z,18.82
2017-06-04T05:14:11.812Z,18.85
2017-06-04T05:15:12.100Z,18.82
2017-06-04T05:16:11.793Z,18.92
2017-06-04T05:17:12.103Z,18.88
2017-06-04T05:18:12.059Z,18.87
2017-06-04T05:19:12.055Z,18.9
2017-06-04T05:20:12.031Z,18.82
2017-06-04T05:21:11.719Z,18.92
2017-06-04T05:22:12.011Z,18.9
2017-06-04T05:23:11.763Z,18.9
2017-06-04T05:24:11.669Z,18.9
2017-06-04T05:25:11.960Z,18.99
2017-06-04T05:26:11.961Z,18.96
2017-06-04T05:27:11.630Z,19.06
2017-06-04T05:28:11.614Z,19.08
2017-06-04T05:29:11.641Z,19.07
2017-06-04T05:30:11.577Z,18.97
2017-06-04T05:31:11.561Z,19.04
2017-06-04T05:32:11.553Z,19.06
2017-06-04T05:33:11.839Z,19.02
2017-06-04T05:34:11.519Z,19.11
2017-06-04T05:35:11.810Z,19.11
2017-06-04T05:36:11.490Z,19.06
2017-06-04T05:37:11.774Z,19.12
2017-06-04T05:38:11.770Z,19.16
2017-06-04T05:39:11.755Z,19.23
2017-06-04T05:40:11.445Z,19.26
2017-06-04T05:41:11.724Z,19.22
2017-06-04T05:42:11.111Z,19.25
2017-06-04T05:43:11.400Z,19.23
2017-06-04T05:44:11.700Z,19.22
2017-06-04T05:45:11.670Z,19.33
2017-06-04T05:46:11.345Z,19.25
2017-06-04T05:47:11.336Z,19.28
2017-06-04T05:48:11.320Z,19.26
2017-06-04T05:49:11.301Z,19.3
2017-06-04T05:50:11.635Z,19.33
2017-06-04T05:51:11.577Z,19.31
2017-06-04T05:52:11.259Z,19.21
2017-06-04T05:53:10.931Z,19.23
2017-06-04T05:54:11.538Z,19.22
2017-06-04T05:55:11.217Z,19.23
2017-06-04T05:56:11.541Z,19.36
2017-06-04T05:57:11.493Z,19.31
2017-06-04T05:58:11.479Z,19.4
2017-06-04T05:59:11.460Z,19.43
2017-06-04T06:00:11.452Z,19.38
2017-06-04T06:01:10.823Z,19.43
2017-06-04T06:02:10.805Z,19.51
2017-06-04T06:03:11.099Z,19.55
2017-06-04T06:04:11.119Z,19.52
2017-06-04T06:05:11.077Z,19.56
2017-06-04T06:06:11.172Z,19.51
2017-06-04T06:07:11.355Z,19.51
2017-06-04T06:08:11.040Z,19.58
2017-06-04T06:09:11.320Z,19.55
2017-06-04T06:10:11.350Z,19.62
2017-06-04T06:11:11.049Z,19.56
2017-06-04T06:12:11.070Z,19.56
2017-06-04T06:13:10.960Z,19.67
2017-06-04T06:14:10.972Z,19.56
2017-06-04T06:15:11.250Z,19.53
2017-06-04T06:16:11.009Z,19.59
2017-06-04T06:17:10.910Z,19.55
2017-06-04T06:18:10.957Z,19.52
2017-06-04T06:19:10.899Z,19.55
2017-06-04T06:20:10.576Z,19.52
2017-06-04T06:21:10.847Z,19.59
2017-06-04T06:22:11.140Z,19.63
2017-06-04T06:23:11.121Z,19.62
2017-06-04T06:24:10.805Z,19.62
2017-06-04T06:25:10.793Z,19.58
2017-06-04T06:26:10.477Z,19.55
2017-06-04T06:27:11.070Z,19.62
2017-06-04T06:28:10.761Z,19.59
2017-06-04T06:29:11.039Z,19.66
2017-06-04T06:30:11.031Z,19.51
2017-06-04T06:31:11.019Z,19.51
2017-06-04T06:32:10.701Z,19.53
2017-06-04T06:33:10.992Z,19.51
2017-06-04T06:34:10.963Z,19.59
2017-06-04T06:35:10.969Z,19.56
2017-06-04T06:36:10.950Z,19.52
2017-06-04T06:37:10.951Z,19.61
2017-06-04T06:38:10.624Z,19.69
2017-06-04T06:39:10.589Z,19.73
2017-06-04T06:40:10.584Z,19.63
2017-06-04T06:41:10.590Z,19.7
2017-06-04T06:42:10.551Z,19.76
2017-06-04T06:43:10.616Z,19.83
2017-06-04T06:44:10.840Z,19.8
2017-06-04T06:45:10.651Z,19.83
2017-06-04T06:46:10.802Z,19.91
2017-06-04T06:47:10.792Z,19.89
2017-06-04T06:48:10.485Z,19.88
2017-06-04T06:49:10.588Z,19.91
2017-06-04T06:50:10.753Z,19.71
2017-06-04T06:51:10.524Z,19.77
2017-06-04T06:52:10.411Z,19.85
2017-06-04T06:53:10.411Z,19.8
2017-06-04T06:54:10.393Z,19.83
2017-06-04T06:55:10.687Z,19.81
2017-06-04T06:56:10.376Z,19.89
2017-06-04T06:57:10.655Z,19.95
2017-06-04T06:58:10.022Z,19.96
2017-06-04T06:59:10.615Z,20.11
2017-06-04T07:00:10.316Z,20.18
2017-06-04T07:01:10.610Z,20.18
2017-06-04T07:02:10.299Z,20.2
2017-06-04T07:03:10.010Z,20.13
2017-06-04T07:04:10.590Z,20.06
2017-06-04T07:05:10.299Z,20.08
2017-06-04T07:06:10.270Z,20.13
2017-06-04T07:07:10.525Z,20.11
2017-06-04T07:08:10.512Z,20.2
2017-06-04T07:09:10.499Z,20.17
2017-06-04T07:10:10.181Z,20.17
2017-06-04T07:11:10.489Z,20.18
2017-06-04T07:12:09.850Z,19.99
2017-06-04T07:13:10.470Z,19.93
2017-06-04T07:14:09.822Z,20.08
2017-06-04T07:15:10.451Z,20.08
2017-06-04T07:16:10.510Z,20.17
2017-06-04T07:17:10.090Z,20.33
2017-06-04T07:18:10.209Z,20.36
2017-06-04T07:19:09.752Z,20.33
2017-06-04T07:20:10.150Z,20.47
2017-06-04T07:21:10.035Z,20.58
2017-06-04T07:22:10.390Z,20.67
2017-06-04T07:23:10.000Z,20.7
2017-06-04T07:24:10.003Z,20.69
2017-06-04T07:25:10.381Z,20.74
2017-06-04T07:26:10.320Z,20.78
2017-06-04T07:27:10.382Z,20.73
2017-06-04T07:28:09.957Z,20.74
2017-06-04T07:29:09.936Z,20.79
2017-06-04T07:30:09.954Z,20.94
2017-06-04T07:31:10.311Z,21.02
2017-06-04T07:32:09.936Z,21
2017-06-04T07:33:09.902Z,20.97
2017-06-04T07:34:09.859Z,21.09
2017-06-04T07:35:10.180Z,21.19
2017-06-04T07:36:09.845Z,21.22
2017-06-04T07:37:10.270Z,21.18
2017-06-04T07:38:10.118Z,21.22
2017-06-04T07:39:09.806Z,21.06
2017-06-04T07:40:09.490Z,21.09
2017-06-04T07:41:10.090Z,21.13
2017-06-04T07:42:10.080Z,21.25
2017-06-04T07:43:10.069Z,21.25
2017-06-04T07:44:09.752Z,21.28
2017-06-04T07:45:10.120Z,21.19
2017-06-04T07:46:09.730Z,21.19
2017-06-04T07:47:09.710Z,21.21
2017-06-04T07:48:09.708Z,21.25
2017-06-04T07:49:09.711Z,21.18
2017-06-04T07:50:09.978Z,21.24
2017-06-04T07:51:09.979Z,21.19
2017-06-04T07:52:09.652Z,21.24
2017-06-04T07:53:09.946Z,21.22
2017-06-04T07:54:09.962Z,21.26
2017-06-04T07:55:09.969Z,21.43
2017-06-04T07:56:09.913Z,21.4
2017-06-04T07:57:09.902Z,21.56
2017-06-04T07:58:09.900Z,21.59
2017-06-04T07:59:09.885Z,21.71
2017-06-04T08:00:09.871Z,21.84
2017-06-04T08:01:09.852Z,21.81
2017-06-04T08:02:09.860Z,21.97
2017-06-04T08:03:09.531Z,21.93
2017-06-04T08:04:09.520Z,21.9
2017-06-04T08:05:09.824Z,21.97
2017-06-04T08:06:09.174Z,22.1
2017-06-04T08:07:09.793Z,22.05
2017-06-04T08:08:09.805Z,21.79
2017-06-04T08:09:09.470Z,21.71
2017-06-04T08:10:09.762Z,21.83
2017-06-04T08:11:09.742Z,21.83
2017-06-04T08:12:09.731Z,21.84
2017-06-04T08:13:09.719Z,21.97
2017-06-04T08:14:09.746Z,21.86
2017-06-04T08:15:09.711Z,22.08
2017-06-04T08:16:09.692Z,22.1
2017-06-04T08:17:09.668Z,21.86
2017-06-04T08:18:09.663Z,21.96
2017-06-04T08:19:09.339Z,21.97
2017-06-04T08:20:09.653Z,21.95
2017-06-04T08:21:09.633Z,22
2017-06-04T08:22:09.319Z,22.06
2017-06-04T08:23:09.621Z,22.11
2017-06-04T08:24:09.604Z,22.12
2017-06-04T08:25:09.288Z,22.2
2017-06-04T08:26:09.690Z,22.22
2017-06-04T08:27:09.576Z,22.18
2017-06-04T08:28:09.239Z,22.42
2017-06-04T08:29:09.223Z,22.59
2017-06-04T08:30:09.221Z,22.74
2017-06-04T08:31:09.205Z,22.79
2017-06-04T08:32:09.501Z,22.77
2017-06-04T08:33:09.492Z,22.79
2017-06-04T08:34:09.191Z,22.79
2017-06-04T08:35:09.174Z,22.8
2017-06-04T08:36:09.692Z,22.94
2017-06-04T08:37:09.138Z,23.12
2017-06-04T08:38:09.474Z,23.1
2017-06-04T08:39:08.822Z,23.29
2017-06-04T08:40:09.431Z,23.24
2017-06-04T08:41:09.419Z,23.33
2017-06-04T08:42:09.404Z,23.33
2017-06-04T08:43:09.383Z,23.42
2017-06-04T08:44:09.067Z,23.4
2017-06-04T08:45:09.362Z,23.51
2017-06-04T08:46:09.050Z,23.42
2017-06-04T08:47:09.044Z,23.29
2017-06-04T08:48:09.360Z,23.42
2017-06-04T08:49:09.336Z,23.27
2017-06-04T08:50:08.707Z,23.45
2017-06-04T08:51:09.302Z,23.59
2017-06-04T08:52:08.982Z,23.82
2017-06-04T08:53:09.290Z,23.96
2017-06-04T08:54:08.967Z,23.82
2017-06-04T08:55:08.952Z,23.63
2017-06-04T08:56:09.250Z,23.5
2017-06-04T08:57:09.265Z,23.42
2017-06-04T08:58:08.912Z,23.59
2017-06-04T08:59:09.220Z,23.81
2017-06-04T09:00:08.907Z,23.72
2017-06-04T09:01:09.231Z,23.63
2017-06-04T09:02:09.206Z,23.25
2017-06-04T09:03:08.667Z,23.19
2017-06-04T09:04:08.914Z,22.8
2017-06-04T09:05:09.158Z,22.61
2017-06-04T09:06:09.166Z,22.98
2017-06-04T09:07:08.840Z,23.28
2017-06-04T09:08:08.830Z,23.82
2017-06-04T09:09:09.132Z,23.96
2017-06-04T09:10:08.803Z,24.07
2017-06-04T09:11:08.808Z,24.33
2017-06-04T09:12:08.782Z,24.52
2017-06-04T09:13:09.084Z,24.47
2017-06-04T09:14:08.760Z,24.33
2017-06-04T09:15:08.781Z,24.06
2017-06-04T09:16:09.087Z,23.59
2017-06-04T09:17:09.048Z,23.4
2017-06-04T09:18:09.034Z,23.27
2017-06-04T09:19:08.859Z,23.27
2017-06-04T09:20:08.771Z,23.03
2017-06-04T09:21:08.527Z,23.21
2017-06-04T09:22:09.105Z,23.32
2017-06-04T09:23:09.063Z,23.29
2017-06-04T09:24:08.672Z,23.47
2017-06-04T09:25:08.737Z,23.66
2017-06-04T09:26:08.717Z,24
2017-06-04T09:27:08.986Z,24.29
2017-06-04T09:28:08.973Z,24.66
2017-06-04T09:29:08.660Z,24.84
2017-06-04T09:30:08.323Z,24.96
2017-06-04T09:31:08.627Z,25.05
2017-06-04T09:32:08.907Z,24.77
2017-06-04T09:33:08.607Z,24.27
2017-06-04T09:34:08.671Z,24.1
2017-06-04T09:35:08.569Z,23.88
2017-06-04T09:36:08.581Z,23.77
2017-06-04T09:37:08.569Z,23.45
2017-06-04T09:38:08.911Z,23.35
2017-06-04T09:39:08.863Z,23.33
2017-06-04T09:40:08.560Z,23.5
2017-06-04T09:41:08.528Z,23.7
2017-06-04T09:42:08.881Z,24.24
2017-06-04T09:43:08.818Z,24.58
2017-06-04T09:44:08.502Z,24.57
2017-06-04T09:45:08.499Z,24.66
2017-06-04T09:46:08.803Z,24.46
2017-06-04T09:47:08.483Z,24.25
2017-06-04T09:48:08.779Z,24.12
2017-06-04T09:49:08.788Z,24.09
2017-06-04T09:50:08.471Z,24.15
2017-06-04T09:51:08.452Z,24.25
2017-06-04T09:52:08.455Z,24.24
2017-06-04T09:53:08.471Z,24.04
2017-06-04T09:54:08.490Z,23.96
2017-06-04T09:55:08.734Z,23.97
2017-06-04T09:56:08.722Z,23.97
2017-06-04T09:57:08.460Z,23.78
2017-06-04T09:58:08.381Z,23.6
2017-06-04T09:59:08.686Z,23.44
2017-06-04T10:00:08.381Z,23.25
2017-06-04T10:01:08.057Z,23.04
2017-06-04T10:02:08.480Z,23.28
2017-06-04T10:03:08.345Z,23.32
2017-06-04T10:04:08.440Z,23.38
2017-06-04T10:05:08.761Z,23.33
2017-06-04T10:06:08.692Z,23.33
2017-06-04T10:07:08.310Z,23.41
2017-06-04T10:08:08.633Z,23.51
2017-06-04T10:09:08.300Z,23.78
2017-06-04T10:10:08.656Z,24.22
2017-06-04T10:11:08.611Z,24.4
2017-06-04T10:12:08.560Z,24.36
2017-06-04T10:13:08.570Z,24.14
2017-06-04T10:14:08.542Z,24
2017-06-04T10:15:08.297Z,24.06
2017-06-04T10:16:08.218Z,23.99
2017-06-04T10:17:08.250Z,23.91
2017-06-04T10:18:08.232Z,23.81
2017-06-04T10:19:08.190Z,24.22
2017-06-04T10:20:08.493Z,24.81
2017-06-04T10:21:08.480Z,25.08
2017-06-04T10:22:08.160Z,25.17
2017-06-04T10:23:08.480Z,25.3
2017-06-04T10:24:08.154Z,25.12
2017-06-04T10:25:08.148Z,25.17
2017-06-04T10:26:08.448Z,25.03
2017-06-04T10:27:08.441Z,25.17
2017-06-04T10:28:08.451Z,25.34
2017-06-04T10:29:08.420Z,25.33
2017-06-04T10:30:08.423Z,25.36
2017-06-04T10:31:08.420Z,25.63
2017-06-04T10:32:08.108Z,25.7
2017-06-04T10:33:08.103Z,25.81
2017-06-04T10:34:08.294Z,25.95
2017-06-04T10:35:07.783Z,26.3
2017-06-04T10:36:08.373Z,26.32
2017-06-04T10:37:08.050Z,26.33
2017-06-04T10:38:08.341Z,26.39
2017-06-04T10:39:08.350Z,26.44
2017-06-04T10:40:08.041Z,26.44
2017-06-04T10:41:08.013Z,26.52
2017-06-04T10:42:08.110Z,26.67
2017-06-04T10:43:08.011Z,26.44
2017-06-04T10:44:07.989Z,26.69
2017-06-04T10:45:08.300Z,26.76
2017-06-04T10:46:08.282Z,26.82
2017-06-04T10:47:08.271Z,26.88
2017-06-04T10:48:07.958Z,26.97
2017-06-04T10:49:07.655Z,27.19
2017-06-04T10:50:08.070Z,27.3
2017-06-04T10:51:08.243Z,27.68
2017-06-04T10:52:08.243Z,27.74
2017-06-04T10:53:07.930Z,27.68
2017-06-04T10:54:08.256Z,27.53
2017-06-04T10:55:08.256Z,27.23
2017-06-04T10:56:07.904Z,27.09
2017-06-04T10:57:08.265Z,27.16
2017-06-04T10:58:07.904Z,27.31
2017-06-04T10:59:07.873Z,27.36
2017-06-04T11:00:07.862Z,27.12
2017-06-04T11:01:07.864Z,27.04
2017-06-04T11:02:07.545Z,27.07
2017-06-04T11:03:07.841Z,27.09
2017-06-04T11:04:08.149Z,27.4
2017-06-04T11:05:08.130Z,27.52
2017-06-04T11:06:08.143Z,27.6
2017-06-04T11:07:08.173Z,27.28
2017-06-04T11:08:07.811Z,27
2017-06-04T11:09:08.128Z,26.85
2017-06-04T11:10:08.110Z,26.64
2017-06-04T11:11:08.101Z,26.48
2017-06-04T11:12:07.477Z,26.19
2017-06-04T11:13:07.761Z,26.01
2017-06-04T11:14:07.756Z,26.1
2017-06-04T11:15:07.753Z,26.15
2017-06-04T11:16:08.056Z,26.13
2017-06-04T11:17:07.733Z,26.23
2017-06-04T11:18:08.020Z,26.24
2017-06-04T11:19:08.021Z,26.06
2017-06-04T11:20:07.709Z,25.86
2017-06-04T11:21:07.681Z,25.88
2017-06-04T11:22:08.000Z,25.74
2017-06-04T11:23:07.671Z,25.7
2017-06-04T11:24:07.681Z,25.76
2017-06-04T11:25:07.973Z,25.85
2017-06-04T11:26:07.361Z,25.89
2017-06-04T11:27:08.021Z,25.82
2017-06-04T11:28:07.659Z,25.66
2017-06-04T11:29:07.620Z,25.45
2017-06-04T11:30:07.950Z,25.27
2017-06-04T11:31:07.619Z,25.34
2017-06-04T11:32:07.915Z,25.36
2017-06-04T11:33:07.592Z,25.37
2017-06-04T11:34:07.965Z,25.49
2017-06-04T11:35:07.579Z,25.51
2017-06-04T11:36:07.554Z,25.42
2017-06-04T11:37:07.550Z,25.4
2017-06-04T11:38:07.890Z,25.39
2017-06-04T11:39:07.853Z,25.27
2017-06-04T11:40:07.232Z,25.22
2017-06-04T11:41:07.526Z,25.12
2017-06-04T11:42:07.501Z,25.1
2017-06-04T11:43:07.801Z,24.96
2017-06-04T11:44:07.497Z,25.07
2017-06-04T11:45:07.482Z,24.95
2017-06-04T11:46:07.475Z,24.92
2017-06-04T11:47:07.768Z,24.74
2017-06-04T11:48:07.451Z,24.75
2017-06-04T11:49:07.437Z,24.55
2017-06-04T11:50:07.430Z,24.47
2017-06-04T11:51:07.125Z,24.39
2017-06-04T11:52:07.711Z,24.32
2017-06-04T11:53:07.702Z,24.24
2017-06-04T11:54:07.721Z,24.22
2017-06-04T11:55:07.372Z,24.25
2017-06-04T11:56:07.069Z,24.19
2017-06-04T11:57:07.682Z,24.22
2017-06-04T11:58:07.352Z,24.1
2017-06-04T11:59:07.342Z,24.09
2017-06-04T12:00:07.332Z,24.07
2017-06-04T12:01:07.645Z,24.09
2017-06-04T12:02:07.628Z,24.07
2017-06-04T12:03:07.615Z,23.84
2017-06-04T12:04:07.309Z,23.75
2017-06-04T12:05:07.590Z,23.8
2017-06-04T12:06:07.283Z,23.77
2017-06-04T12:07:07.282Z,23.89
2017-06-04T12:08:07.550Z,23.87
2017-06-04T12:09:07.544Z,23.84
2017-06-04T12:10:07.544Z,23.84
2017-06-04T12:11:07.527Z,23.84
2017-06-04T12:12:07.511Z,23.87
2017-06-04T12:13:07.496Z,23.91
2017-06-04T12:14:07.489Z,24
2017-06-04T12:15:07.478Z,24.04
2017-06-04T12:16:07.479Z,24.07
2017-06-04T12:17:07.470Z,24.09
2017-06-04T12:18:07.471Z,24.12
2017-06-04T12:19:07.433Z,23.99
2017-06-04T12:20:07.421Z,23.99
2017-06-04T12:21:07.105Z,24.02
2017-06-04T12:22:07.110Z,24.18
2017-06-04T12:23:07.403Z,24.28
2017-06-04T12:24:07.375Z,24.37
2017-06-04T12:25:07.062Z,24.22
2017-06-04T12:26:07.373Z,24.28
2017-06-04T12:27:07.170Z,24.46
2017-06-04T12:28:07.340Z,24.77
2017-06-04T12:29:07.451Z,25.08
2017-06-04T12:30:07.325Z,25.44
2017-06-04T12:31:07.315Z,25.85
2017-06-04T12:32:07.092Z,26.24
2017-06-04T12:33:07.386Z,26.45
2017-06-04T12:34:07.322Z,26.44
2017-06-04T12:35:07.306Z,26.45
2017-06-04T12:36:07.336Z,26.27
2017-06-04T12:37:07.252Z,25.94
2017-06-04T12:38:07.313Z,25.55
2017-06-04T12:39:07.271Z,25.3
2017-06-04T12:40:07.239Z,25.14
2017-06-04T12:41:07.210Z,25.07
2017-06-04T12:42:06.950Z,25.07
2017-06-04T12:43:07.245Z,25.03
2017-06-04T12:44:07.298Z,24.99
2017-06-04T12:45:07.192Z,25.07
2017-06-04T12:46:07.183Z,25.1
2017-06-04T12:47:07.147Z,24.82
2017-06-04T12:48:07.170Z,24.89
2017-06-04T12:49:07.132Z,24.89
2017-06-04T12:50:07.145Z,24.84
2017-06-04T12:51:06.807Z,24.85
2017-06-04T12:52:06.806Z,24.85
2017-06-04T12:53:07.101Z,24.87
2017-06-04T12:54:06.785Z,24.75
2017-06-04T12:55:07.081Z,24.58